x

9414763 - Oakland, Ca (lndc1) Weather Station

3:24am - Sat 30th Jul 2016 All times are PDT. -7 hours from GMT.

  • Wind
    5mph, 6mph gusts
  • Air Temp 57°f
  • Sea Pressure 1008.8mb
  • 9414763 - Oakland, Ca
  • 9414763 - Oakland, Ca

More Historic Weather Station data

Upgrade to MSW Pro to gain access to the past 30 days of data for over 8000 Wavebouys and Weather Stations around the globe.

Join Pro

Comparision Forecast

View Surf forecast
   
Sat 07/30 3:24am 5 6 mph 1008.8mb 57f
3:18am 3 5 mph 1008.9mb 57f
3:12am 5 6 mph 1008.9mb 56f
3:06am 5 8 mph 1009mb 57f
3:00am 5 7 mph 1009mb 57f
2:54am 3 5 mph 1009.1mb 57f
2:36am 2 3 mph 1009.2mb 57f
2:30am 2 3 mph 1009.2mb 57f
2:06am 3 6 mph 1009.4mb 57f
2:00am 6 7 mph 1009.4mb 57f
1:54am 5 7 mph 1009.3mb 57f
1:48am 5 6 mph 1009.4mb 57f
1:42am 5 6 mph 1009.4mb 57f
1:06am 2 5 mph 1009.5mb 58f
1:00am 2 3 mph 1009.4mb 58f
12:36am 3 5 mph 1009.5mb 57f
12:30am 3 5 mph 1009.5mb 58f
12:24am 3 6 mph 1009.5mb 58f
12:12am 5
mph
1009.5mb 57f
12:06am 3 6 mph 1009.5mb 57f
12:00am 5 6 mph 1009.5mb 57f
Fri 07/29 11:54pm 5 7 mph 1009.5mb 57f
11:48pm 5 6 mph 1009.4mb 57f
11:42pm 5 6 mph 1009.4mb 57f
11:30pm 5 7 mph 1009.3mb 58f
11:24pm 5 6 mph 1009.4mb 58f
11:18pm 5 6 mph 1009.4mb 58f
11:12pm 5 6 mph 1009.5mb 58f
11:06pm 5 6 mph 1009.5mb 58f
11:00pm 3 5 mph 1009.5mb 58f
10:54pm 3 6 mph 1009.5mb 58f
10:48pm 3 5 mph 1009.6mb 58f
10:42pm 2 3 mph 1009.6mb 58f
10:36pm 5 6 mph 1009.6mb 58f
10:30pm 3 6 mph 1009.7mb 58f
10:12pm 3 5 mph 1009.8mb 58f
10:06pm 3 6 mph 1009.9mb 59f
9:54pm 3 7 mph 1009.9mb 58f
9:48pm 2 3 mph 1009.9mb 58f
9:36pm 2 3 mph 1009.8mb 58f
9:30pm 2 5 mph 1009.7mb 58f
9:18pm 3 7 mph 1009.5mb 58f
9:06pm 5 7 mph 1009.4mb 58f
9:00pm 6 8 mph 1009.4mb 58f
8:54pm 6 7 mph 1009.4mb 58f
8:48pm 6 7 mph 1009.4mb 59f
8:42pm 7 8 mph 1009.4mb 58f
8:36pm 5 8 mph 1009.4mb 59f
8:30pm  -  mph 1009.4mb -
8:18pm 6 8 mph - -
8:12pm 6 8 mph - -
8:06pm 7 9 mph - -
8:00pm  -  mph 1009.2mb -
7:54pm  -  mph 1009.1mb -
7:48pm 7 9 mph 1009.1mb -
7:30pm 6 8 mph 1009mb -
7:24pm 6 9 mph 1009mb -
7:18pm 7 9 mph 1008.9mb -
7:06pm 6 8 mph 1008.9mb -
7:00pm 5 7 mph 1008.9mb 64f
6:48pm 6 8 mph 1008.9mb -
6:42pm 6 7 mph 1008.8mb -
6:36pm 5 8 mph 1008.8mb -
6:24pm 6 9 mph 1008.8mb -
6:18pm 7 9 mph - -
6:06pm 6 9 mph - -
5:54pm  -  mph 1008.9mb -
5:42pm 6 9 mph 1009mb -
5:24pm 5 9 mph 1009.1mb -
5:12pm 5 7 mph - 67f
5:06pm 6 8 mph - 67f
3:12pm  -  mph 1009.8mb -
3:06pm  -  mph 1009.9mb -
2:48pm 7 9 mph 1010.1mb 66f
2:42pm 6 10 mph 1010.2mb 66f
2:36pm 7 10 mph 1010.2mb 65f
2:30pm 7 10 mph 1010.2mb 65f
2:18pm 7 9 mph 1010.4mb 65f
2:12pm 6 9 mph 1010.4mb 66f
2:00pm 7 9 mph 1010.5mb 66f
1:42pm 7 10 mph 1010.7mb 65f
1:36pm 6 8 mph 1010.8mb 65f
1:24pm 7 9 mph 1010.8mb 65f
1:18pm 5 8 mph 1010.9mb 66f
1:06pm 7 9 mph 1011mb 65f
1:00pm 7 10 mph 1010.9mb 65f
12:54pm 6 9 mph 1011mb 65f
12:42pm 8 10 mph 1011.1mb 65f
12:36pm 7 10 mph 1011.2mb 65f
12:24pm 7 9 mph 1011.3mb 64f
12:06pm 6 9 mph 1011.4mb 64f
12:00pm 6 8 mph 1011.4mb 63f
11:54am 6 9 mph 1011.4mb 63f
11:42am 5 9 mph 1011.5mb 62f
11:30am 5 7 mph 1011.4mb 63f
11:24am 6 8 mph 1011.5mb 63f
11:18am 6 8 mph 1011.5mb 62f
11:12am 5 8 mph 1011.5mb 62f
11:06am 6 8 mph 1011.5mb 62f
11:00am 5 7 mph 1011.5mb 62f
10:54am 6 7 mph 1011.5mb 62f
10:48am 6 7 mph 1011.6mb 61f
10:42am 6 7 mph 1011.5mb 61f
10:24am 6 7 mph 1011.5mb 60f
10:18am 6 7 mph 1011.5mb 60f
10:12am 5 6 mph 1011.6mb 60f
10:06am 5 6 mph 1011.6mb 59f
9:54am 6 7 mph 1011.6mb 59f
9:48am 6 7 mph 1011.6mb 59f
9:42am 6 7 mph 1011.7mb 58f
9:36am 6 7 mph 1011.7mb 58f
9:30am 6 7 mph 1011.8mb 58f
9:24am 5 7 mph 1011.8mb 58f
9:12am 6 7 mph 1011.8mb 58f
8:54am 6 7 mph 1011.9mb 57f
8:48am 6 7 mph 1011.9mb 57f
8:36am 6 7 mph 1011.8mb 56f
8:30am 5 7 mph 1011.9mb 56f
8:18am 6 7 mph 1011.8mb 56f
8:06am 6 7 mph 1011.8mb 56f
8:00am 5 6 mph 1011.8mb 56f
7:54am 5 6 mph 1011.8mb 56f
7:48am 3 6 mph 1011.9mb 56f
6:54am 3 5 mph 1011.4mb 56f
5:48am 3 6 mph 1011mb 56f
5:42am 3 6 mph 1011mb 56f
4:54am 2 3 mph 1010.9mb 56f
4:30am 2 3 mph 1010.9mb 56f
4:00am 2 5 mph 1010.8mb 56f
3:48am 2 5 mph 1010.9mb 55f
3:30am 5 6 mph 1010.8mb 55f
3:18am 2 5 mph 1010.9mb 56f
3:12am 2 3 mph 1011mb 55f
2:36am 3 6 mph 1011.1mb 56f
2:24am 5 7 mph 1011.1mb 56f
2:18am 3 5 mph 1011.1mb 56f
2:12am 2 5 mph 1011.1mb 56f
2:06am 3 5 mph 1011.2mb 56f
1:54am 3 6 mph 1011.1mb 56f
1:42am 2 5 mph 1011.1mb 56f
1:30am 3
mph
1011.1mb 56f
1:18am 3 5 mph 1011.2mb 56f
1:06am 3 6 mph 1011.3mb 56f
12:36am 2 3 mph 1011.5mb 57f
12:00am 3 6 mph 1011.6mb 57f
Thu 07/28 11:54pm 3 5 mph 1011.6mb 57f
11:30pm 3 6 mph 1011.7mb 57f
11:24pm 5 6 mph 1011.7mb 57f
11:12pm 3 6 mph 1011.8mb 57f
11:06pm 6 7 mph 1011.9mb 57f
10:54pm 5 7 mph 1012mb 57f
10:48pm 3 5 mph 1012mb -
10:42pm 5 6 mph 1012mb -
10:36pm 6 7 mph 1012mb -
10:30pm 3 6 mph 1012mb 57f
10:18pm 5 7 mph 1012mb 57f
10:06pm 6 7 mph 1011.9mb 57f
10:00pm 6 7 mph 1011.9mb 57f
9:54pm 6 8 mph 1011.8mb 58f
9:48pm 6 8 mph 1011.7mb 58f
9:36pm 5 6 mph 1011.6mb 58f
9:30pm 6 7 mph 1011.6mb 58f
9:18pm 2 5 mph 1011.5mb 58f
9:12pm 3 5 mph 1011.4mb 58f
9:06pm 2 5 mph 1011.4mb 58f
9:00pm 5 6 mph 1011.3mb 58f
8:42pm 6 7 mph 1011.2mb 59f
8:30pm 5 6 mph 1011.2mb 59f
8:24pm 5 7 mph 1011.2mb 59f
8:06pm  -  mph 1011.1mb -
7:54pm 5 8 mph - -
7:48pm 6 7 mph 1010.9mb -
7:36pm 3 7 mph 1010.9mb -
7:30pm 3 7 mph - -
7:24pm 5 6 mph - -
7:18pm  -  mph - 64f
7:00pm  -  mph 1010.6mb -
6:54pm  -  mph 1010.6mb -
6:30pm 6 8 mph 1010.6mb -
6:12pm 6 8 mph - -
6:06pm 7 10 mph - -
6:00pm  -  mph - 65f
5:54pm  -  mph - 65f
5:48pm 8 10 mph 1011mb -
5:30pm 7 9 mph 1011mb -
5:24pm 7 10 mph 1011mb -
5:18pm 7 10 mph 1011.1mb -
5:12pm 7 9 mph 1011.1mb -
5:06pm 6 10 mph 1011.1mb -
4:42pm 7 10 mph 1011.2mb -
4:36pm 7 10 mph 1011.3mb -
4:30pm 7 9 mph - -
4:24pm 6 10 mph - -
4:18pm 5 9 mph - -
4:12pm 6 7 mph - -
4:00pm 7 11 mph - -
3:48pm 6 9 mph - -
3:42pm 6 9 mph - -
3:30pm 7 9 mph 1011.8mb -
3:18pm 7 9 mph 1011.9mb 67f
3:12pm 7 11 mph 1012mb 67f
3:06pm 7 9 mph 1012mb 67f
2:48pm 6 8 mph - 68f
2:42pm 6 10 mph - 68f
2:30pm 6 9 mph 1012.2mb 68f
2:24pm 6 8 mph 1012.1mb 67f
2:06pm 6 8 mph 1012.2mb 68f
2:00pm 5 8 mph 1012.3mb 68f
1:48pm 2 6 mph 1012.4mb 68f
1:42pm 3 8 mph 1012.4mb 67f
1:36pm 2 8 mph 1012.5mb 66f
1:24pm 5 8 mph 1012.6mb 66f
1:18pm 6 9 mph 1012.6mb 66f
1:06pm 3 8 mph 1012.8mb 66f
1:00pm 5 7 mph 1012.9mb 66f
12:48pm 5 8 mph 1013mb 65f
12:18pm 6 7 mph 1013.2mb 64f
12:00pm 5 9 mph 1013.2mb 64f
11:54am 5 8 mph 1013.3mb 64f
11:48am 5 7 mph 1013.3mb 63f
11:42am 6 8 mph 1013.3mb 63f
11:18am 6 7 mph 1013.4mb 62f
11:12am 5 7 mph 1013.4mb 63f
11:06am 6 9 mph 1013.3mb 62f
10:54am 7 9 mph 1013.2mb 62f
10:48am 7 8 mph 1013.2mb 62f
10:42am 6 7 mph 1013.2mb 62f
10:36am 5 7 mph 1013.3mb 62f
10:24am 2 5 mph 1013.4mb 61f
10:18am 3 6 mph 1013.5mb 61f
10:12am 5 6 mph 1013.5mb 60f
9:54am 6
mph
1013.5mb 59f
9:48am 5 7 mph 1013.5mb 59f
9:42am 6 8 mph 1013.5mb 58f
9:36am 6 7 mph 1013.5mb 58f
9:30am 6 8 mph 1013.5mb 58f
9:18am 6 7 mph 1013.6mb 57f
9:00am 5 6 mph 1013.9mb 57f
8:54am 2 3 mph 1013.8mb 57f
8:48am 2 3 mph 1013.7mb 57f
8:42am  -  3 mph 1013.8mb 57f
8:36am 2 5 mph 1013.7mb 56f
8:30am 2 5 mph 1013.7mb 55f
7:24am 5 7 mph 1013.4mb 55f
7:12am 3 6 mph 1013.3mb 55f
6:18am 3 5 mph 1012.8mb 55f
5:30am 3 5 mph 1012.7mb 56f
5:24am 3 5 mph 1012.6mb 56f
5:06am 3 6 mph 1012.7mb 56f
4:42am 3 6 mph 1012.7mb 56f
4:36am 5 6 mph 1012.7mb 56f
4:24am 3 5 mph 1012.7mb 56f
4:18am 3 6 mph 1012.6mb 56f
4:12am 3 5 mph 1012.6mb 56f
4:00am 2 5 mph 1012.6mb 56f
3:48am 3 5 mph 1012.6mb 56f
3:42am 3 5 mph 1012.6mb 56f
3:36am 3 5 mph 1012.6mb 56f
3:18am 3 5 mph 1012.6mb 56f
3:06am 5
mph
1012.6mb 56f
3:00am 5 6 mph 1012.7mb 56f
2:54am 5 6 mph 1012.7mb 56f
2:48am 2 3 mph 1012.7mb 56f
2:42am 2 3 mph 1012.7mb 56f
2:30am 1 3 mph 1012.7mb 56f
2:18am 2 3 mph 1012.7mb 56f
2:12am 2 5 mph 1012.8mb 56f
2:00am 3 5 mph 1012.8mb 56f
1:54am 2 5 mph 1012.8mb 56f
1:48am 3 5 mph 1012.8mb 56f
1:36am 5 7 mph 1012.8mb 56f
1:30am 5 6 mph 1012.8mb 56f
1:24am 5 7 mph 1012.9mb 56f
1:12am 2 3 mph 1013mb 56f
1:06am 2 5 mph 1013mb 56f
1:00am 3 5 mph 1013mb 56f
12:54am 3 5 mph 1013.1mb 56f
12:48am 3 6 mph 1013.2mb 56f
12:42am 3 5 mph 1013.2mb 56f
12:36am 3 6 mph 1013.2mb 56f
12:30am 3 5 mph 1013.2mb 56f
12:24am 3 5 mph 1013.3mb 56f
12:18am 3 5 mph 1013.3mb 56f
12:12am 2 5 mph 1013.3mb 56f
12:06am 3 5 mph 1013.2mb 56f
12:00am 3 6 mph 1013.3mb 56f
Wed 07/27 11:54pm 5 6 mph 1013.2mb 57f
11:48pm 5 6 mph 1013.2mb -
11:42pm 5 6 mph 1013.1mb -
11:24pm 5 6 mph 1013.2mb 58f
11:18pm 5 6 mph 1013.2mb 58f
11:06pm 3 6 mph 1013.2mb 58f
10:54pm 3 5 mph 1013.2mb 58f
10:48pm 3 6 mph 1013.2mb -
10:42pm 5 6 mph 1013.3mb -
10:24pm 3
mph
1013.3mb 58f
10:18pm 2 3 mph 1013.3mb 58f
10:12pm 2 3 mph 1013.2mb 58f
10:06pm 2 5 mph 1013.2mb 58f
10:00pm 3 5 mph 1013.1mb 58f
9:54pm 3 6 mph 1013.1mb 59f
9:48pm 3 6 mph 1013mb 58f
9:42pm 5 6 mph 1013mb 59f
9:36pm 5 7 mph 1012.9mb 58f
9:30pm 3 6 mph 1012.8mb 59f
9:18pm 5 6 mph 1012.7mb 58f
9:06pm 5 7 mph 1012.6mb 58f
8:54pm 5 7 mph 1012.5mb 59f
8:48pm 7 8 mph 1012.5mb 58f
8:42pm 6 8 mph 1012.4mb 58f
8:24pm 7 8 mph 1012.4mb 59f
8:18pm 6 8 mph - -
8:12pm 6 7 mph - -
8:06pm 6 7 mph - -
8:00pm 6 8 mph 1012.3mb -
7:54pm 6 9 mph 1012.2mb -
7:36pm 7 9 mph - -
7:30pm 6 9 mph - -
7:18pm 6 8 mph - -
7:12pm 6 8 mph - -
7:06pm 6 8 mph - -
6:54pm 6 8 mph - -
6:48pm 7 9 mph - -
6:42pm 7 9 mph - -
6:12pm 7 9 mph - -
6:06pm 7 8 mph - -
6:00pm 8 10 mph - -
5:54pm 7 9 mph - -
5:42pm 6 8 mph 1011.7mb -
5:36pm 8 9 mph 1011.7mb -
5:18pm  -  mph - 68f
5:00pm  -  mph - 68f
4:54pm  -  mph - 68f
4:48pm  -  mph 1011.7mb -
4:42pm  -  mph 1011.8mb -
4:36pm  -  mph 1011.8mb -
4:24pm 5 9 mph - -
4:18pm  -  mph - 71f
4:06pm  -  mph - 71f
3:54pm  -  mph - 70f
3:36pm  -  mph - 71f
3:06pm 7 9 mph 1012.2mb 70f
2:48pm 8 10 mph - 70f
2:42pm 7 9 mph - 70f
2:36pm 7 11 mph - 70f
2:24pm 8 10 mph 1012.4mb 70f
2:18pm 7 10 mph 1012.5mb 69f
2:12pm 8 10 mph 1012.6mb 69f
2:06pm 7 10 mph 1012.6mb 68f
2:00pm 8 11 mph 1012.7mb 68f
1:54pm 7 10 mph 1012.7mb 68f
1:48pm 8 11 mph 1012.7mb 68f
1:18pm 6 9 mph 1012.7mb 68f
12:48pm 6 8 mph 1012.9mb 67f
12:42pm 6 9 mph 1012.9mb 67f
12:36pm 6 9 mph 1012.9mb 67f
12:30pm 6 9 mph 1012.9mb 67f
12:18pm 6 9 mph 1012.9mb 67f
12:00pm 6 8 mph 1013.1mb 67f
11:48am 7 9 mph 1013mb 68f
11:42am 6 8 mph 1013.1mb 68f
11:18am 6 8 mph 1013mb 68f
11:00am 3 7 mph 1012.9mb 67f
10:54am 3 5 mph 1012.9mb 67f
10:48am 2 5 mph 1012.9mb 67f
10:42am 2 5 mph 1012.9mb 66f
10:30am 2 5 mph 1013mb 65f
10:24am 2 5 mph 1013mb 65f
10:12am 2 6 mph 1012.9mb 64f
10:06am 3 6 mph 1012.9mb 63f
9:42am 5 6 mph 1012.9mb 62f
9:36am 5 7 mph 1012.9mb 62f
9:30am 5 7 mph 1012.9mb 62f
9:18am 5 8 mph 1012.9mb 61f
9:12am 6 8 mph 1012.8mb 60f
8:48am 6 7 mph 1012.7mb 60f
8:30am 6 7 mph 1012.7mb 59f
8:24am 5 7 mph 1012.7mb 59f
8:18am 5 7 mph 1012.8mb 59f
8:12am 5 6 mph 1012.7mb 59f
8:00am 5 7 mph 1012.7mb 59f
7:54am 6 7 mph 1012.6mb 58f
7:36am 5 6 mph 1012.5mb 58f
7:30am 5 6 mph 1012.6mb 58f
7:24am 3 6 mph 1012.4mb 58f
7:18am 5 7 mph 1012.4mb 58f
7:12am 5 6 mph 1012.4mb 57f
7:06am 5 6 mph 1012.3mb 57f
7:00am 5 7 mph 1012.3mb 57f
6:42am 5 7 mph 1012.2mb 57f
6:24am 6 7 mph 1012mb 57f
6:18am 5 7 mph 1012mb 57f
5:54am 6 8 mph 1011.7mb 57f
5:42am 6 8 mph 1011.6mb 57f
5:36am 6 8 mph 1011.5mb 57f
5:30am 6 8 mph 1011.4mb 57f
5:18am 7 8 mph 1011.3mb 57f
5:12am 5 7 mph 1011.4mb 58f
5:00am 7 8 mph 1011.5mb 58f
4:54am 5 6 mph 1011.5mb 58f
4:42am 6 8 mph 1011.4mb 57f
4:18am 5 6 mph 1011.5mb 58f
4:00am 6 7 mph 1011.4mb 58f
3:54am 6 8 mph 1011.4mb 58f
3:48am 5 7 mph 1011.5mb 58f
3:42am 3 7 mph 1011.5mb 58f
3:36am 5 7 mph 1011.5mb 58f
3:06am 2 5 mph 1011.4mb 59f
3:00am 5 6 mph 1011.4mb 58f
2:54am 3 7 mph 1011.3mb 58f
2:24am 5 6 mph 1011.2mb 58f
2:12am 7 9 mph 1011.2mb 58f
2:06am 6 9 mph 1011.1mb 59f
2:00am 6 8 mph 1011.2mb 59f
1:48am 7 8 mph 1011.3mb 59f
1:42am 5 7 mph 1011.4mb 60f
1:24am 5 6 mph 1011.6mb 60f
1:18am 2 3 mph 1011.7mb 60f
12:54am 2 3 mph 1011.5mb 61f
12:36am 3 5 mph 1011.5mb 61f
12:30am 2 3 mph 1011.5mb 60f
12:06am 3
mph
1011.4mb 61f
Tue 07/26 11:42pm 2 3 mph 1011.5mb 60f
11:36pm 3
mph
1011.5mb 60f
11:12pm 2 5 mph 1011.4mb 60f
11:06pm 3 5 mph 1011.5mb 60f
10:54pm 3 6 mph 1011.5mb 60f
10:48pm 6 8 mph 1011.5mb 60f
10:24pm 5 7 mph 1011.6mb 61f
10:06pm 6 9 mph 1011.5mb 61f
10:00pm 6 8 mph 1011.3mb 61f
9:54pm 6 10 mph 1011.2mb 61f
9:48pm 6 9 mph 1011.2mb 61f
9:36pm 7 9 mph 1011.1mb 61f
9:18pm 6 9 mph 1011mb 62f
9:12pm 7 10 mph 1010.9mb 62f
9:06pm 7 10 mph 1010.9mb 62f
8:54pm 7 10 mph 1010.8mb 63f
8:48pm 8 11 mph 1010.7mb 62f
8:42pm 8 13 mph 1010.7mb 62f
8:30pm 8 10 mph 1010.6mb 62f
8:24pm 7 10 mph 1010.7mb 63f
8:18pm 6 10 mph 1010.6mb -
8:00pm 7 9 mph - -
7:48pm 6 9 mph 1010.4mb -
7:06pm 7 9 mph 1010.2mb 70f
7:00pm  -  mph - 71f
6:54pm  -  mph - 71f
6:48pm 7 9 mph - -
6:42pm 7 9 mph - -
6:24pm 8 10 mph - -
6:18pm 7 9 mph - 73f
6:12pm 8 9 mph - 72f
5:48pm 6 8 mph 1010.3mb -
5:30pm 8 10 mph - 74f
5:18pm  -  mph - 73f
5:12pm  -  mph - 74f
5:06pm  -  mph - 73f
4:24pm 8 10 mph - 76f
4:12pm 7 9 mph 1010.8mb -
4:00pm  -  mph 1011mb -
3:54pm  -  mph 1011.1mb -
3:42pm  -  mph 1011.3mb -
3:30pm 5 9 mph 1011.4mb 78f
3:24pm 6 8 mph 1011.4mb 78f
3:18pm 6 7 mph 1011.5mb -
3:12pm 6 8 mph 1011.5mb -
2:54pm  -  mph - 76f
2:06pm 6 8 mph 1012mb 76f
2:00pm 7 9 mph 1012.1mb 76f
1:54pm 6 9 mph 1012mb 76f
1:42pm 7 10 mph 1012.1mb 76f
1:36pm 7 9 mph 1012.1mb 76f
1:30pm 6 9 mph 1012.2mb 76f
1:24pm 3 8 mph 1012.3mb 75f
1:18pm 6 9 mph 1012.3mb 75f
1:06pm 6 8 mph 1012.3mb 75f
12:42pm 7 9 mph 1012.5mb 74f
12:36pm 7 8 mph 1012.6mb 74f
12:24pm 5 7 mph 1012.6mb 74f
12:12pm 5 6 mph 1012.7mb 72f
12:00pm 5
mph
1013mb 71f
11:42am 5 6 mph 1013mb 69f
11:36am 5 6 mph 1013mb 69f